createdAt,value
2023-05-22T00:00:32.800Z,441.4615
2023-05-22T00:01:34.532Z,441.1538
2023-05-22T00:02:36.440Z,440.6154
2023-05-22T00:03:37.996Z,439.4615
2023-05-22T00:04:39.722Z,437.9231
2023-05-22T00:05:41.581Z,439.2308
2023-05-22T00:06:43.135Z,438.8462
2023-05-22T00:07:44.930Z,439.1538
2023-05-22T00:08:46.615Z,438.0769
2023-05-22T00:09:48.313Z,438.1538
2023-05-22T00:10:50.029Z,439.3077
2023-05-22T00:11:51.857Z,441.3846
2023-05-22T00:12:53.507Z,443.2308
2023-05-22T00:13:55.212Z,443.6923
2023-05-22T00:14:56.958Z,444.3077
2023-05-22T00:15:58.663Z,444.6923
2023-05-22T00:17:00.440Z,443.5385
2023-05-22T00:18:02.255Z,441.9231
2023-05-22T00:19:03.925Z,440.0769
2023-05-22T00:20:05.584Z,440.2308
2023-05-22T00:21:07.285Z,440.6154
2023-05-22T00:22:09.018Z,439.3077
2023-05-22T00:23:12.158Z,440.0000
2023-05-22T00:24:12.597Z,440.4615
2023-05-22T00:25:14.200Z,439.7692
2023-05-22T00:26:15.932Z,441.0769
2023-05-22T00:27:17.662Z,441.1538
2023-05-22T00:28:19.359Z,440.5385
2023-05-22T00:29:21.113Z,441.3846
2023-05-22T00:30:22.883Z,440.3846
2023-05-22T00:31:24.548Z,437.5385
2023-05-22T00:32:26.272Z,437.7692
2023-05-22T00:33:28.015Z,437.3077
2023-05-22T00:34:29.772Z,437.0769
2023-05-22T00:35:31.428Z,438.3077
2023-05-22T00:36:33.181Z,438.3077
2023-05-22T00:37:34.871Z,438.3077
2023-05-22T00:38:36.619Z,438.8462
2023-05-22T00:39:38.355Z,440.0769
2023-05-22T00:40:40.240Z,439.6154
2023-05-22T00:41:41.791Z,439.9231
2023-05-22T00:42:43.514Z,441.4615
2023-05-22T00:43:45.241Z,441.3846
2023-05-22T00:44:46.948Z,442.6923
2023-05-22T00:45:48.660Z,442.1538
2023-05-22T00:46:50.464Z,441.0769
2023-05-22T00:47:52.124Z,438.3077
2023-05-22T00:48:53.870Z,437.7692
2023-05-22T00:49:55.583Z,440.1538
2023-05-22T00:50:57.283Z,439.3846
2023-05-22T00:51:59.006Z,441.3846
2023-05-22T00:53:00.744Z,442.7692
2023-05-22T00:54:02.455Z,443.8462
2023-05-22T00:55:04.216Z,443.6154
2023-05-22T00:56:05.914Z,445.5385
2023-05-22T00:57:07.619Z,445.3077
2023-05-22T00:58:09.335Z,443.3077
2023-05-22T00:59:11.098Z,441.8462
2023-05-22T01:00:12.837Z,440.6154
2023-05-22T01:01:14.526Z,442.9231
2023-05-22T01:02:16.250Z,444.0769
2023-05-22T01:03:18.052Z,444.7692
2023-05-22T01:04:19.707Z,442.7692
2023-05-22T01:05:21.424Z,442.8462
2023-05-22T01:06:23.144Z,443.7692
2023-05-22T01:07:24.851Z,444.0000
2023-05-22T01:08:26.575Z,443.1538
2023-05-22T01:09:28.310Z,439.6923
2023-05-22T01:10:30.052Z,438.3077
2023-05-22T01:11:31.747Z,439.1538
2023-05-22T01:12:33.485Z,439.0769
2023-05-22T01:13:35.213Z,440.7692
2023-05-22T01:14:36.904Z,441.7692
2023-05-22T01:15:38.676Z,439.3077
2023-05-22T01:16:40.487Z,441.3077
2023-05-22T01:17:42.103Z,445.4615
2023-05-22T01:18:43.837Z,448.0000
2023-05-22T01:19:45.646Z,446.8462
2023-05-22T01:20:48.731Z,445.0000
2023-05-22T01:21:49.069Z,444.9231
2023-05-22T01:22:50.893Z,444.7692
2023-05-22T01:23:52.521Z,445.3077
2023-05-22T01:24:54.282Z,447.2308
2023-05-22T01:25:56.117Z,447.4615
2023-05-22T01:26:57.695Z,446.0000
2023-05-22T01:27:59.438Z,445.6923
2023-05-22T01:29:01.153Z,444.3077
2023-05-22T01:30:02.881Z,443.6923
2023-05-22T01:31:04.635Z,440.7692
2023-05-22T01:32:06.334Z,440.0769
2023-05-22T01:33:08.241Z,440.0769
2023-05-22T01:34:09.782Z,443.0000
2023-05-22T01:35:11.518Z,443.0000
2023-05-22T01:36:13.225Z,443.7692
2023-05-22T01:37:14.956Z,444.3846
2023-05-22T01:38:16.682Z,441.7692
2023-05-22T01:39:18.379Z,442.1538
2023-05-22T01:40:20.125Z,442.0000
2023-05-22T01:41:21.859Z,442.8462
2023-05-22T01:42:23.557Z,442.9231
2023-05-22T01:43:25.270Z,444.9231
2023-05-22T01:44:27.011Z,444.1538
2023-05-22T01:45:28.750Z,443.4615
2023-05-22T01:46:30.456Z,444.0000
2023-05-22T01:47:32.194Z,442.6154
2023-05-22T01:48:33.909Z,444.6923
2023-05-22T01:49:35.636Z,443.6923
2023-05-22T01:50:37.479Z,441.3846
2023-05-22T01:51:39.114Z,440.3846
2023-05-22T01:52:40.793Z,439.3846
2023-05-22T01:53:42.534Z,439.6154
2023-05-22T01:54:44.265Z,441.4615
2023-05-22T01:55:45.952Z,442.7692
2023-05-22T01:56:47.715Z,441.8462
2023-05-22T01:57:49.399Z,443.0769
2023-05-22T01:58:51.157Z,445.2308
2023-05-22T01:59:52.870Z,445.2308
2023-05-22T02:00:54.638Z,445.8462
2023-05-22T02:01:56.333Z,444.1538
2023-05-22T02:02:58.140Z,444.2308
2023-05-22T02:03:59.761Z,446.3846
2023-05-22T02:05:01.496Z,446.4615
2023-05-22T02:06:03.221Z,446.6923
2023-05-22T02:07:04.934Z,447.6154
2023-05-22T02:08:06.647Z,449.8462
2023-05-22T02:09:08.389Z,445.1538
2023-05-22T02:10:10.104Z,446.4615
2023-05-22T02:11:11.817Z,447.3846
2023-05-22T02:12:13.574Z,447.8462
2023-05-22T02:13:15.262Z,447.2308
2023-05-22T02:14:16.988Z,445.0769
2023-05-22T02:15:18.734Z,445.7692
2023-05-22T02:16:20.522Z,445.6923
2023-05-22T02:17:22.168Z,447.3846
2023-05-22T02:18:23.900Z,446.3846
2023-05-22T02:19:25.679Z,446.6154
2023-05-22T02:20:27.324Z,448.6154
2023-05-22T02:21:29.069Z,450.2308
2023-05-22T02:22:30.817Z,451.7692
2023-05-22T02:23:32.535Z,456.1538
2023-05-22T02:24:34.223Z,456.6154
2023-05-22T02:25:35.972Z,455.2308
2023-05-22T02:26:37.761Z,454.0000
2023-05-22T02:27:39.442Z,453.2308
2023-05-22T02:28:41.155Z,452.0000
2023-05-22T02:29:42.842Z,451.1538
2023-05-22T02:30:44.561Z,453.0769
2023-05-22T02:31:46.383Z,453.6154
2023-05-22T02:32:48.136Z,454.1538
2023-05-22T02:33:49.775Z,453.9231
2023-05-22T02:34:52.866Z,453.0000
2023-05-22T02:35:53.189Z,452.3846
2023-05-22T02:36:54.943Z,453.2308
2023-05-22T02:37:56.647Z,453.1538
2023-05-22T02:38:58.369Z,452.3846
2023-05-22T02:40:00.150Z,451.5385
2023-05-22T02:41:01.820Z,450.6154
2023-05-22T02:42:03.587Z,452.5385
2023-05-22T02:43:05.274Z,456.0769
2023-05-22T02:44:06.993Z,456.1538
2023-05-22T02:45:08.740Z,455.0769
2023-05-22T02:46:10.464Z,454.2308
2023-05-22T02:47:12.165Z,455.0769
2023-05-22T02:48:13.941Z,456.0769
2023-05-22T02:49:15.613Z,455.5385
2023-05-22T02:50:17.339Z,454.3846
2023-05-22T02:51:19.091Z,453.4615
2023-05-22T02:52:20.821Z,452.1538
2023-05-22T02:53:22.535Z,451.3846
2023-05-22T02:54:24.253Z,450.8462
2023-05-22T02:55:25.983Z,452.9231
2023-05-22T02:56:27.684Z,454.5385
2023-05-22T02:57:29.435Z,454.8462
2023-05-22T02:58:31.171Z,454.0769
2023-05-22T02:59:32.866Z,452.5385
2023-05-22T03:00:34.609Z,455.1538
2023-05-22T03:01:36.350Z,456.6154
2023-05-22T03:02:38.088Z,456.5385
2023-05-22T03:03:39.965Z,456.5385
2023-05-22T03:04:41.485Z,456.0769
2023-05-22T03:05:43.250Z,454.2308
2023-05-22T03:06:44.955Z,454.6154
2023-05-22T03:07:48.544Z,453.7692
2023-05-22T03:08:48.406Z,452.7692
2023-05-22T03:09:50.123Z,451.0000
2023-05-22T03:10:51.861Z,453.6923
2023-05-22T03:11:53.584Z,455.6154
2023-05-22T03:12:55.288Z,454.6923
2023-05-22T03:13:57.045Z,456.0769
2023-05-22T03:14:58.760Z,455.2308
2023-05-22T03:16:01.031Z,454.4615
2023-05-22T03:17:02.214Z,454.0769
2023-05-22T03:18:03.997Z,451.0000
2023-05-22T03:19:05.661Z,451.0769
2023-05-22T03:20:07.358Z,454.0769
2023-05-22T03:21:09.107Z,455.8462
2023-05-22T03:22:10.817Z,459.8462
2023-05-22T03:23:12.531Z,459.5385
2023-05-22T03:24:14.291Z,459.6154
2023-05-22T03:25:16.069Z,461.4615
2023-05-22T03:26:17.732Z,458.1538
2023-05-22T03:27:19.433Z,457.2308
2023-05-22T03:28:21.172Z,458.6154
2023-05-22T03:29:22.957Z,458.6154
2023-05-22T03:30:24.598Z,457.1538
2023-05-22T03:31:26.329Z,457.0769
2023-05-22T03:32:28.098Z,457.8462
2023-05-22T03:33:29.802Z,457.6923
2023-05-22T03:34:31.510Z,459.3077
2023-05-22T03:35:33.264Z,459.3846
2023-05-22T03:36:34.973Z,456.8462
2023-05-22T03:37:36.702Z,459.4615
2023-05-22T03:38:38.430Z,461.1538
2023-05-22T03:39:40.157Z,462.4615
2023-05-22T03:40:41.987Z,463.0769
2023-05-22T03:41:43.576Z,462.0000
2023-05-22T03:42:45.294Z,463.0000
2023-05-22T03:43:47.047Z,463.3077
2023-05-22T03:44:48.793Z,462.3077
2023-05-22T03:45:50.511Z,463.6923
2023-05-22T03:46:52.216Z,462.0000
2023-05-22T03:47:54.027Z,461.3846
2023-05-22T03:48:55.642Z,461.8462
2023-05-22T03:49:57.385Z,461.5385
2023-05-22T03:50:59.102Z,463.9231
2023-05-22T03:52:00.851Z,464.0000
2023-05-22T03:53:02.559Z,463.5385
2023-05-22T03:54:04.261Z,463.7692
2023-05-22T03:55:06.029Z,462.4615
2023-05-22T03:56:07.744Z,460.2308
2023-05-22T03:57:09.429Z,458.4615
2023-05-22T03:58:11.181Z,458.2308
2023-05-22T03:59:12.907Z,459.3846
2023-05-22T04:00:14.634Z,459.6154
2023-05-22T04:01:16.354Z,459.5385
2023-05-22T04:02:18.152Z,460.1538
2023-05-22T04:03:20.037Z,458.3077
2023-05-22T04:04:21.498Z,458.2308
2023-05-22T04:05:23.338Z,457.8462
2023-05-22T04:06:24.953Z,455.0769
2023-05-22T04:07:26.681Z,452.9231
2023-05-22T04:08:28.433Z,455.0000
2023-05-22T04:09:30.126Z,455.7692
2023-05-22T04:10:31.872Z,456.5385
2023-05-22T04:11:33.605Z,455.2308
2023-05-22T04:12:35.337Z,452.9231
2023-05-22T04:13:37.024Z,452.0000
2023-05-22T04:14:38.752Z,452.8462
2023-05-22T04:15:40.511Z,452.0769
2023-05-22T04:16:42.214Z,452.1538
2023-05-22T04:17:43.948Z,450.4615
2023-05-22T04:18:45.675Z,453.8462
2023-05-22T04:19:47.366Z,455.3077
2023-05-22T04:20:49.114Z,451.7692
2023-05-22T04:21:50.825Z,449.2308
2023-05-22T04:22:52.528Z,448.8462
2023-05-22T04:23:54.254Z,448.7692
2023-05-22T04:24:56.003Z,448.2308
2023-05-22T04:25:57.747Z,449.3077
2023-05-22T04:26:59.426Z,449.0000
2023-05-22T04:28:01.163Z,447.5385
2023-05-22T04:29:02.870Z,450.0769
2023-05-22T04:30:04.619Z,449.3846
2023-05-22T04:31:06.418Z,450.4615
2023-05-22T04:32:08.070Z,450.7692
2023-05-22T04:33:09.775Z,450.4615
2023-05-22T04:34:11.505Z,449.9231
2023-05-22T04:35:13.206Z,449.8462
2023-05-22T04:36:14.943Z,447.8462
2023-05-22T04:37:16.653Z,448.7692
2023-05-22T04:38:18.426Z,450.3077
2023-05-22T04:39:20.118Z,451.0769
2023-05-22T04:40:21.834Z,453.1538
2023-05-22T04:41:23.552Z,451.8462
2023-05-22T04:42:25.280Z,452.4615
2023-05-22T04:43:27.008Z,452.0769
2023-05-22T04:44:28.706Z,452.0769
2023-05-22T04:45:30.450Z,452.3077
2023-05-22T04:46:32.209Z,453.0769
2023-05-22T04:47:33.932Z,453.6923
2023-05-22T04:48:35.628Z,450.0769
2023-05-22T04:49:37.361Z,451.1538
2023-05-22T04:50:39.206Z,452.0769
2023-05-22T04:51:40.814Z,450.3077
2023-05-22T04:52:42.528Z,448.4615
2023-05-22T04:53:44.264Z,453.0769
2023-05-22T04:54:45.952Z,456.3077
2023-05-22T04:55:47.690Z,453.0769
2023-05-22T04:56:49.415Z,453.6154
2023-05-22T04:57:51.122Z,454.3846
2023-05-22T04:58:52.843Z,455.9231
2023-05-22T04:59:54.574Z,456.0769
2023-05-22T05:00:56.324Z,457.5385
2023-05-22T05:01:58.058Z,457.4615
2023-05-22T05:02:59.832Z,457.0769
2023-05-22T05:04:01.636Z,460.2308
2023-05-22T05:05:03.183Z,460.4615
2023-05-22T05:06:04.919Z,460.8462
2023-05-22T05:07:06.665Z,461.2308
2023-05-22T05:08:08.370Z,462.0769
2023-05-22T05:09:10.075Z,464.7692
2023-05-22T05:10:11.819Z,464.6923
2023-05-22T05:11:13.549Z,464.8462
2023-05-22T05:12:15.261Z,465.6923
2023-05-22T05:13:16.973Z,464.3846
2023-05-22T05:14:18.702Z,463.0769
2023-05-22T05:15:20.442Z,462.6923
2023-05-22T05:16:22.200Z,463.5385
2023-05-22T05:17:23.910Z,463.3077
2023-05-22T05:18:25.593Z,464.4615
2023-05-22T05:19:27.332Z,464.7692
2023-05-22T05:20:29.074Z,463.7692
2023-05-22T05:21:30.788Z,464.8462
2023-05-22T05:22:32.530Z,465.2308
2023-05-22T05:23:34.347Z,464.0769
2023-05-22T05:24:36.054Z,465.0000
2023-05-22T05:25:37.764Z,468.5385
2023-05-22T05:26:39.478Z,468.0769
2023-05-22T05:27:41.210Z,466.5385
2023-05-22T05:28:42.947Z,467.4615
2023-05-22T05:29:44.666Z,467.3846
2023-05-22T05:30:46.396Z,464.6923
2023-05-22T05:31:48.134Z,464.8462
2023-05-22T05:32:49.889Z,466.5385
2023-05-22T05:33:51.562Z,466.4615
2023-05-22T05:34:53.272Z,469.3846
2023-05-22T05:35:54.987Z,469.0769
2023-05-22T05:36:56.711Z,469.4615
2023-05-22T05:37:58.455Z,469.2308
2023-05-22T05:39:00.162Z,469.3077
2023-05-22T05:40:01.923Z,470.0000
2023-05-22T05:41:03.628Z,471.5385
2023-05-22T05:42:05.327Z,472.3846
2023-05-22T05:43:08.539Z,472.0769
2023-05-22T05:44:08.806Z,469.3077
2023-05-22T05:45:10.521Z,468.4615
2023-05-22T05:46:12.267Z,470.0769
2023-05-22T05:47:13.970Z,469.8462
2023-05-22T05:48:15.684Z,467.3077
2023-05-22T05:49:17.393Z,467.9231
2023-05-22T05:50:19.161Z,466.3077
2023-05-22T05:51:20.874Z,462.5385
2023-05-22T05:52:22.593Z,462.5385
2023-05-22T05:53:24.301Z,463.5385
2023-05-22T05:54:26.020Z,464.9231
2023-05-22T05:55:27.742Z,464.9231
2023-05-22T05:56:29.510Z,464.6923
2023-05-22T05:57:31.198Z,466.3077
2023-05-22T05:58:32.920Z,464.4615
2023-05-22T05:59:34.669Z,463.6923
2023-05-22T06:00:36.388Z,463.3077
2023-05-22T06:01:38.107Z,464.5385
2023-05-22T06:02:39.922Z,462.0769
2023-05-22T06:03:41.766Z,460.7692
2023-05-22T06:04:43.280Z,461.2308
2023-05-22T06:05:45.065Z,459.3077
2023-05-22T06:06:46.723Z,457.7692
2023-05-22T06:07:48.431Z,457.6154
2023-05-22T06:08:50.195Z,458.0769
2023-05-22T06:09:51.890Z,459.3077
2023-05-22T06:10:53.626Z,459.0769
2023-05-22T06:11:55.345Z,458.2308
2023-05-22T06:12:57.070Z,456.6923
2023-05-22T06:13:58.788Z,455.6154
2023-05-22T06:15:00.524Z,455.3077
2023-05-22T06:16:05.030Z,457.2308
2023-05-22T06:23:42.245Z,455.4167
2023-05-22T06:24:43.862Z,460.3846
2023-05-22T06:25:45.591Z,460.6923
2023-05-22T06:26:47.423Z,459.5385
2023-05-22T06:27:49.064Z,460.8462
2023-05-22T06:28:50.780Z,459.6923
2023-05-22T06:29:52.511Z,457.6154
2023-05-22T06:30:54.315Z,457.3077
2023-05-22T06:31:55.986Z,456.3846
2023-05-22T06:32:57.810Z,458.7692
2023-05-22T06:33:59.611Z,455.3846
2023-05-22T06:35:01.099Z,452.7692
2023-05-22T06:36:02.835Z,452.5385
2023-05-22T06:37:04.685Z,453.4615
2023-05-22T06:38:06.304Z,450.6154
2023-05-22T06:39:08.000Z,449.4615
2023-05-22T06:40:09.729Z,449.6154
2023-05-22T06:41:11.490Z,449.1538
2023-05-22T06:42:13.191Z,450.0000
2023-05-22T06:43:14.988Z,451.8462
2023-05-22T06:44:16.636Z,452.2308
2023-05-22T06:45:18.338Z,448.6923
2023-05-22T06:46:20.074Z,449.4615
2023-05-22T06:47:21.848Z,452.1538
2023-05-22T06:48:23.617Z,453.5385
2023-05-22T06:49:25.228Z,452.8462
2023-05-22T06:50:26.978Z,448.9231
2023-05-22T06:51:28.697Z,445.8462
2023-05-22T06:52:30.416Z,447.3846
2023-05-22T06:53:32.124Z,450.9231
2023-05-22T06:54:33.946Z,451.2308
2023-05-22T06:55:35.572Z,452.7692
2023-05-22T06:56:37.313Z,452.8462
2023-05-22T06:57:39.036Z,451.6154
2023-05-22T06:58:40.737Z,446.8462
2023-05-22T06:59:42.458Z,447.0000
2023-05-22T07:00:44.286Z,445.8462
2023-05-22T07:01:46.005Z,445.0769
2023-05-22T07:02:47.682Z,446.5385
2023-05-22T07:03:49.370Z,447.4615
2023-05-22T07:04:51.079Z,444.5385
2023-05-22T07:05:52.878Z,445.0000
2023-05-22T07:06:54.615Z,445.5385
2023-05-22T07:07:56.270Z,445.3077
2023-05-22T07:08:57.999Z,446.3846
2023-05-22T07:09:59.691Z,447.7692
2023-05-22T07:11:01.433Z,448.9231
2023-05-22T07:12:03.141Z,448.5385
2023-05-22T07:13:04.987Z,449.1538
2023-05-22T07:14:06.605Z,447.6154
2023-05-22T07:15:08.311Z,445.8462
2023-05-22T07:16:10.090Z,444.3846
2023-05-22T07:17:11.771Z,446.6923
2023-05-22T07:18:13.638Z,446.4615
2023-05-22T07:19:15.307Z,447.0769
2023-05-22T07:20:16.958Z,447.1538
2023-05-22T07:21:18.660Z,446.4615
2023-05-22T07:22:20.396Z,447.6154
2023-05-22T07:23:22.983Z,447.0769
2023-05-22T07:24:23.919Z,445.9231
2023-05-22T07:25:25.598Z,444.1538
2023-05-22T07:26:27.555Z,446.3846
2023-05-22T07:27:29.036Z,447.6923
2023-05-22T07:28:30.759Z,447.5385
2023-05-22T07:29:32.457Z,445.6923
2023-05-22T07:30:34.249Z,443.3077
2023-05-22T07:31:35.956Z,444.4615
2023-05-22T07:32:37.790Z,447.6154
2023-05-22T07:33:39.370Z,446.6923
2023-05-22T07:34:41.077Z,448.0000
2023-05-22T07:35:42.832Z,448.6154
2023-05-22T07:36:44.520Z,448.2308
2023-05-22T07:37:46.256Z,447.5385
2023-05-22T07:38:47.975Z,448.5385
2023-05-22T07:39:49.696Z,447.4615
2023-05-22T07:40:51.486Z,444.7692
2023-05-22T07:41:54.592Z,443.7692
2023-05-22T07:44:53.518Z,424.3333
2023-05-22T07:45:55.177Z,431.0000
2023-05-22T07:46:56.912Z,437.2308
2023-05-22T07:47:58.789Z,441.4615
2023-05-22T07:49:00.355Z,442.0000
2023-05-22T07:50:02.092Z,440.3846
2023-05-22T07:51:03.783Z,441.6154
2023-05-22T07:52:05.511Z,441.0769
2023-05-22T07:53:07.375Z,439.7692
2023-05-22T07:54:08.986Z,439.4615
2023-05-22T07:55:10.710Z,439.4615
2023-05-22T07:56:12.528Z,440.0000
2023-05-22T07:57:14.137Z,440.2308
2023-05-22T07:58:15.888Z,439.6923
2023-05-22T07:59:17.700Z,440.0000
2023-05-22T08:00:19.323Z,439.6923
2023-05-22T08:01:21.033Z,438.0769
2023-05-22T08:02:22.848Z,436.6923
2023-05-22T08:03:24.656Z,436.0000
2023-05-22T08:04:26.408Z,435.3077
2023-05-22T08:05:27.946Z,434.0769
2023-05-22T08:06:29.656Z,434.4615
2023-05-22T08:07:31.410Z,434.6154
2023-05-22T08:08:33.124Z,435.1538
2023-05-22T08:09:34.835Z,435.5385
2023-05-22T08:10:47.170Z,434.0769
2023-05-22T08:13:43.144Z,423.0000
2023-05-22T08:14:44.729Z,425.4615
2023-05-22T08:15:46.434Z,427.3846
2023-05-22T08:16:48.263Z,430.5385
2023-05-22T08:17:49.986Z,432.7692
2023-05-22T08:18:51.651Z,433.6923
2023-05-22T08:19:53.432Z,432.3077
2023-05-22T08:20:55.164Z,430.5385
2023-05-22T08:21:56.808Z,429.0769
2023-05-22T08:22:58.520Z,431.1538
2023-05-22T08:24:00.244Z,431.3077
2023-05-22T08:25:01.967Z,431.3846
2023-05-22T08:26:03.691Z,434.0769
2023-05-22T08:27:05.486Z,434.2308
2023-05-22T08:28:07.141Z,430.3846
2023-05-22T08:29:08.949Z,432.2308
2023-05-22T08:30:10.613Z,433.0769
2023-05-22T08:31:12.387Z,432.9231
2023-05-22T08:32:14.120Z,430.3077
2023-05-22T08:33:15.818Z,428.3846
2023-05-22T08:34:17.489Z,428.3846
2023-05-22T08:35:19.223Z,428.4615
2023-05-22T08:36:20.934Z,428.3077
2023-05-22T08:37:22.685Z,427.9231
2023-05-22T08:38:24.496Z,427.8462
2023-05-22T08:39:26.130Z,426.6154
2023-05-22T08:40:27.835Z,426.1538
2023-05-22T08:41:29.610Z,426.0769
2023-05-22T08:42:31.285Z,424.9231
2023-05-22T08:43:33.009Z,423.7692
2023-05-22T08:44:34.851Z,425.9231
2023-05-22T08:45:36.479Z,425.6154
2023-05-22T08:46:38.307Z,424.4615
2023-05-22T08:47:39.950Z,419.7692
2023-05-22T08:48:41.648Z,420.7692
2023-05-22T08:49:43.448Z,422.7692
2023-05-22T08:50:45.077Z,425.0769
2023-05-22T08:51:46.797Z,425.0769
2023-05-22T08:52:48.532Z,424.9231
2023-05-22T08:53:50.248Z,424.6923
2023-05-22T08:54:51.993Z,422.9231
2023-05-22T08:55:53.782Z,424.6923
2023-05-22T08:56:57.081Z,425.5385
2023-05-22T08:57:57.174Z,425.3077
2023-05-22T08:58:58.890Z,426.4615
2023-05-22T09:00:00.814Z,424.6923
2023-05-22T09:01:02.392Z,424.6154
2023-05-22T09:02:05.851Z,423.9231
2023-05-22T09:03:05.869Z,423.0769
2023-05-22T09:04:07.563Z,422.6154
2023-05-22T09:05:09.229Z,420.8462
2023-05-22T09:06:10.953Z,421.3077
2023-05-22T09:07:12.679Z,420.3077
2023-05-22T09:08:20.618Z,421.0769
2023-05-22T09:09:16.111Z,421.9231
2023-05-22T09:10:17.843Z,422.5385
2023-05-22T09:11:19.571Z,424.0000
2023-05-22T09:12:21.296Z,423.2308
2023-05-22T09:13:23.023Z,422.7692
2023-05-22T09:14:24.822Z,421.7692
2023-05-22T09:15:26.584Z,420.7692
2023-05-22T09:16:28.216Z,420.2308
2023-05-22T09:17:29.967Z,423.1538
2023-05-22T09:18:31.659Z,423.1538
2023-05-22T09:19:33.475Z,423.6154
2023-05-22T09:20:35.077Z,422.0769
2023-05-22T09:21:36.817Z,423.6154
2023-05-22T09:22:38.545Z,424.2308
2023-05-22T09:23:40.236Z,423.3846
2023-05-22T09:24:41.995Z,424.3077
2023-05-22T09:25:43.770Z,421.5385
2023-05-22T09:26:45.426Z,423.9231
2023-05-22T09:27:47.126Z,424.5385
2023-05-22T09:28:48.886Z,422.5385
2023-05-22T09:29:50.592Z,422.4615
2023-05-22T09:30:52.393Z,421.4615
2023-05-22T09:31:54.319Z,421.4615
2023-05-22T09:32:55.844Z,420.7692
2023-05-22T09:33:57.468Z,420.2308
2023-05-22T09:34:59.202Z,423.0000
2023-05-22T09:36:00.926Z,423.3846
2023-05-22T09:37:02.699Z,422.9231
2023-05-22T09:38:04.399Z,423.8462
2023-05-22T09:39:06.101Z,424.2308
2023-05-22T09:40:07.824Z,422.6154
2023-05-22T09:41:09.573Z,422.9231
2023-05-22T09:42:11.270Z,422.0000
2023-05-22T09:43:13.085Z,420.7692
2023-05-22T09:44:14.710Z,420.6154
2023-05-22T09:45:16.454Z,423.3077
2023-05-22T09:46:18.296Z,422.4615
2023-05-22T09:47:19.930Z,421.3846
2023-05-22T09:48:21.640Z,421.0000
2023-05-22T09:49:23.431Z,420.1538
2023-05-22T09:50:25.093Z,421.0769
2023-05-22T09:51:26.858Z,419.1538
2023-05-22T09:52:28.503Z,421.7692
2023-05-22T09:53:30.294Z,421.5385
2023-05-22T09:54:31.975Z,418.9231
2023-05-22T09:55:33.795Z,420.6154
2023-05-22T09:56:39.855Z,423.1538
2023-05-22T09:58:41.451Z,407.9167
2023-05-22T09:59:43.095Z,410.9231
2023-05-22T10:00:44.797Z,414.0769
2023-05-22T10:01:46.617Z,415.7692
2023-05-22T10:02:48.312Z,417.2308
2023-05-22T10:03:50.009Z,419.0000
2023-05-22T10:04:51.802Z,418.1538
2023-05-22T10:05:53.456Z,417.6154
2023-05-22T10:06:55.297Z,417.5385
2023-05-22T10:07:56.883Z,418.6154
2023-05-22T10:08:58.621Z,418.0769
2023-05-22T10:10:00.366Z,415.8462
2023-05-22T10:11:02.087Z,415.7692
2023-05-22T10:12:03.774Z,415.7692
2023-05-22T10:13:05.604Z,415.6154
2023-05-22T10:14:07.252Z,416.0769
2023-05-22T10:15:08.945Z,414.0769
2023-05-22T10:16:10.678Z,416.3077
2023-05-22T10:17:12.461Z,416.7692
2023-05-22T10:18:14.125Z,416.2308
2023-05-22T10:19:15.992Z,414.0000
2023-05-22T10:20:17.574Z,414.0769
2023-05-22T10:21:19.317Z,413.8462
2023-05-22T10:22:21.054Z,415.4615
2023-05-22T10:23:22.752Z,415.5385
2023-05-22T10:24:24.458Z,417.4615
2023-05-22T10:25:26.287Z,419.3846
2023-05-22T10:26:28.036Z,418.1538
2023-05-22T10:27:29.654Z,417.1538
2023-05-22T10:28:31.346Z,414.5385
2023-05-22T10:29:33.089Z,415.3846
2023-05-22T10:30:34.817Z,416.2308
2023-05-22T10:31:37.919Z,417.9231
2023-05-22T10:32:38.385Z,417.3846
2023-05-22T10:33:40.030Z,417.0769
2023-05-22T10:34:41.693Z,415.8462
2023-05-22T10:35:43.425Z,414.9231
2023-05-22T10:36:47.153Z,414.3077
2023-05-22T10:38:52.616Z,401.5833
2023-05-22T10:39:54.262Z,408.3077
2023-05-22T10:40:55.988Z,413.5385
2023-05-22T10:41:57.825Z,417.0000
2023-05-22T10:42:59.412Z,419.7692
2023-05-22T10:44:01.162Z,421.2308
2023-05-22T10:45:02.863Z,422.7692
2023-05-22T10:46:04.766Z,420.9231
2023-05-22T10:47:06.316Z,418.7692
2023-05-22T10:48:08.350Z,418.9231
2023-05-22T10:49:09.783Z,419.0769
2023-05-22T10:50:11.582Z,421.1538
2023-05-22T10:51:13.212Z,419.2308
2023-05-22T10:52:15.052Z,419.8462
2023-05-22T10:53:16.677Z,419.1538
2023-05-22T10:54:18.401Z,418.6154
2023-05-22T10:55:20.130Z,415.4615
2023-05-22T10:56:24.425Z,415.0000
2023-05-22T10:57:23.557Z,416.1538
2023-05-22T10:58:25.388Z,415.8462
2023-05-22T10:59:26.995Z,415.2308
2023-05-22T11:00:28.725Z,413.7692
2023-05-22T11:01:30.506Z,413.5385
2023-05-22T11:02:32.209Z,415.6154
2023-05-22T11:03:34.027Z,416.8462
2023-05-22T11:04:35.656Z,416.0000
2023-05-22T11:05:37.373Z,416.3846
2023-05-22T11:06:39.130Z,416.3077
2023-05-22T11:07:40.818Z,417.3077
2023-05-22T11:08:42.537Z,415.3077
2023-05-22T11:09:44.309Z,415.4615
2023-05-22T11:10:45.977Z,415.0769
2023-05-22T11:11:47.716Z,414.0769
2023-05-22T11:12:49.432Z,417.3846
2023-05-22T11:13:51.134Z,417.6154
2023-05-22T11:14:52.863Z,411.8462
2023-05-22T11:15:54.715Z,412.8462
2023-05-22T11:16:56.370Z,414.5385
2023-05-22T11:17:58.127Z,414.3077
2023-05-22T11:19:04.604Z,416.6923
2023-05-22T11:24:10.640Z,382.4167
2023-05-22T11:25:12.260Z,402.0000
2023-05-22T11:26:13.981Z,406.6154
2023-05-22T11:27:15.785Z,409.3077
2023-05-22T11:28:17.460Z,408.6154
2023-05-22T11:29:19.185Z,409.8462
2023-05-22T11:30:20.885Z,410.3846
2023-05-22T11:31:22.733Z,410.6154
2023-05-22T11:32:24.358Z,409.7692
2023-05-22T11:33:26.095Z,409.1538
2023-05-22T11:34:27.942Z,410.6923
2023-05-22T11:35:29.548Z,412.1538
2023-05-22T11:36:31.238Z,410.4615
2023-05-22T11:37:33.055Z,410.0769
2023-05-22T11:38:34.711Z,408.9231
2023-05-22T11:39:36.428Z,407.4615
2023-05-22T11:40:38.315Z,407.9231
2023-05-22T11:41:39.883Z,408.6154
2023-05-22T11:42:41.680Z,407.6154
2023-05-22T11:43:43.357Z,408.8462
2023-05-22T11:44:45.041Z,409.0000
2023-05-22T11:45:46.767Z,410.0000
2023-05-22T11:46:48.502Z,409.5385
2023-05-22T11:47:50.262Z,410.2308
2023-05-22T11:48:52.048Z,410.3077
2023-05-22T11:49:53.725Z,413.2308
2023-05-22T11:50:55.399Z,411.8462
2023-05-22T11:51:57.115Z,410.3846
2023-05-22T11:52:58.861Z,411.8462
2023-05-22T11:54:00.573Z,413.3077
2023-05-22T11:55:02.391Z,413.6154
2023-05-22T11:56:04.034Z,412.8462
2023-05-22T11:57:05.778Z,410.1538
2023-05-22T11:58:07.465Z,412.8462
2023-05-22T11:59:09.210Z,412.8462
2023-05-22T12:00:11.028Z,411.0000
2023-05-22T12:01:12.727Z,410.9231
2023-05-22T12:02:14.372Z,414.0000
2023-05-22T12:03:16.194Z,414.9231
2023-05-22T12:11:16.347Z,392.1667
2023-05-22T12:12:18.363Z,395.9231
2023-05-22T12:13:19.713Z,397.3077
2023-05-22T12:19:50.072Z,398.2500
2023-05-22T12:20:51.701Z,403.4615
2023-05-22T12:21:53.591Z,405.7692
2023-05-22T12:22:55.168Z,406.5385
2023-05-22T12:23:56.873Z,407.0769
2023-05-22T12:24:58.603Z,408.3846
2023-05-22T12:26:00.315Z,408.2308
2023-05-22T12:28:12.209Z,385.2500
2023-05-22T12:29:13.849Z,390.6154
2023-05-22T12:30:15.683Z,397.5385
2023-05-22T12:31:17.379Z,401.9231
2023-05-22T12:32:19.066Z,403.0769
2023-05-22T12:33:20.740Z,403.8462
2023-05-22T12:34:22.466Z,404.8462
2023-05-22T12:35:24.400Z,405.8462